Vac, Hungary
Current Conditions -  °F | °C
As of 11:00 PM on Tuesday 27 Jan 2015 (Local Time) from LHBP Reporting Station
Haze Haze  
Wind Chill: 32°   Ceiling: 700
Heat Index: 32°   Visibility: 1.6mi
Dew Point: 32°   Wind: 1mph
Humidity: 100%   Direction: NA
Pressure: 30"   Gusts: NA
Location:  47.79°N, 19.13°E
Report Text: LHBP 272100Z VRB01KT 2600 BR SCT002 OVC007 M00/M00 Q1016 NOSIG
Loading
Personal Weather Stations






























Interactive Weather Map New forecast layout! Learn more

10-Day Weather Forecast

Advertisements
Track Severe Weather on mobile